sensor_id;sensor_type;location;lat;lon;timestamp;P1;durP1;ratioP1;P2;durP2;ratioP2
59418;SDS011;45224;50.904;6.038;2022-08-06T00:00:01;3.53;;;1.10;;
59418;SDS011;45224;50.904;6.038;2022-08-06T00:01:41;3.28;;;1.20;;
59418;SDS011;45224;50.904;6.038;2022-08-06T00:03:12;5.07;;;1.20;;
59418;SDS011;45224;50.904;6.038;2022-08-06T00:04:42;3.57;;;1.30;;
59418;SDS011;45224;50.904;6.038;2022-08-06T00:06:13;2.63;;;1.23;;
59418;SDS011;45224;50.904;6.038;2022-08-06T00:07:43;4.83;;;1.40;;
59418;SDS011;45224;50.904;6.038;2022-08-06T00:09:14;7.15;;;1.38;;
59418;SDS011;45224;50.904;6.038;2022-08-06T00:10:44;5.13;;;1.20;;
59418;SDS011;45224;50.904;6.038;2022-08-06T00:12:15;3.70;;;1.47;;
59418;SDS011;45224;50.904;6.038;2022-08-06T00:13:45;3.15;;;1.20;;
59418;SDS011;45224;50.904;6.038;2022-08-06T00:15:16;3.70;;;1.30;;
59418;SDS011;45224;50.904;6.038;2022-08-06T00:16:48;4.05;;;1.58;;
59418;SDS011;45224;50.904;6.038;2022-08-06T00:18:18;3.70;;;1.00;;
59418;SDS011;45224;50.904;6.038;2022-08-06T00:19:49;4.60;;;1.40;;
59418;SDS011;45224;50.904;6.038;2022-08-06T00:21:19;5.17;;;1.33;;
59418;SDS011;45224;50.904;6.038;2022-08-06T00:22:50;3.85;;;1.27;;
59418;SDS011;45224;50.904;6.038;2022-08-06T00:24:20;3.23;;;1.20;;
59418;SDS011;45224;50.904;6.038;2022-08-06T00:25:51;3.70;;;1.20;;
59418;SDS011;45224;50.904;6.038;2022-08-06T00:27:22;3.20;;;1.13;;
59418;SDS011;45224;50.904;6.038;2022-08-06T00:28:53;5.55;;;1.40;;
59418;SDS011;45224;50.904;6.038;2022-08-06T00:30:23;3.57;;;1.40;;
59418;SDS011;45224;50.904;6.038;2022-08-06T00:31:54;4.00;;;1.10;;
59418;SDS011;45224;50.904;6.038;2022-08-06T00:33:24;8.37;;;1.10;;
59418;SDS011;45224;50.904;6.038;2022-08-06T00:34:55;4.50;;;1.27;;
59418;SDS011;45224;50.904;6.038;2022-08-06T00:36:25;8.20;;;1.20;;
59418;SDS011;45224;50.904;6.038;2022-08-06T00:37:57;6.53;;;1.20;;
59418;SDS011;45224;50.904;6.038;2022-08-06T00:39:27;5.73;;;1.17;;
59418;SDS011;45224;50.904;6.038;2022-08-06T00:40:58;2.83;;;1.30;;
59418;SDS011;45224;50.904;6.038;2022-08-06T00:42:28;4.40;;;1.48;;
59418;SDS011;45224;50.904;6.038;2022-08-06T00:43:59;4.78;;;1.20;;
59418;SDS011;45224;50.904;6.038;2022-08-06T00:45:33;8.43;;;1.23;;
59418;SDS011;45224;50.904;6.038;2022-08-06T00:47:04;5.53;;;1.17;;
59418;SDS011;45224;50.904;6.038;2022-08-06T00:48:34;5.00;;;1.57;;
59418;SDS011;45224;50.904;6.038;2022-08-06T00:50:05;7.07;;;1.73;;
59418;SDS011;45224;50.904;6.038;2022-08-06T00:51:36;3.92;;;1.50;;
59418;SDS011;45224;50.904;6.038;2022-08-06T00:53:06;7.23;;;1.30;;
59418;SDS011;45224;50.904;6.038;2022-08-06T00:54:37;8.53;;;1.40;;
59418;SDS011;45224;50.904;6.038;2022-08-06T00:56:07;3.83;;;1.43;;
59418;SDS011;45224;50.904;6.038;2022-08-06T00:57:38;2.58;;;1.33;;
59418;SDS011;45224;50.904;6.038;2022-08-06T00:59:09;4.30;;;1.50;;
59418;SDS011;45224;50.904;6.038;2022-08-06T01:00:40;5.23;;;1.50;;
59418;SDS011;45224;50.904;6.038;2022-08-06T01:02:10;7.67;;;1.50;;
59418;SDS011;45224;50.904;6.038;2022-08-06T01:05:12;3.00;;;1.40;;
59418;SDS011;45224;50.904;6.038;2022-08-06T01:06:42;4.43;;;1.30;;
59418;SDS011;45224;50.904;6.038;2022-08-06T01:08:13;7.53;;;1.50;;
59418;SDS011;45224;50.904;6.038;2022-08-06T01:09:43;6.57;;;2.03;;
59418;SDS011;45224;50.904;6.038;2022-08-06T01:11:14;4.07;;;1.20;;
59418;SDS011;45224;50.904;6.038;2022-08-06T01:12:44;5.33;;;1.43;;
59418;SDS011;45224;50.904;6.038;2022-08-06T01:14:15;2.43;;;1.37;;
59418;SDS011;45224;50.904;6.038;2022-08-06T01:15:48;5.17;;;1.50;;
59418;SDS011;45224;50.904;6.038;2022-08-06T01:17:24;5.85;;;1.58;;
59418;SDS011;45224;50.904;6.038;2022-08-06T01:25:09;5.88;;;1.50;;
59418;SDS011;45224;50.904;6.038;2022-08-06T01:26:44;3.92;;;1.35;;
59418;SDS011;45224;50.904;6.038;2022-08-06T01:29:51;4.63;;;1.60;;
59418;SDS011;45224;50.904;6.038;2022-08-06T01:31:36;3.15;;;1.10;;
59418;SDS011;45224;50.904;6.038;2022-08-06T01:33:17;7.10;;;1.58;;
59418;SDS011;45224;50.904;6.038;2022-08-06T01:35:12;5.22;;;1.67;;
59418;SDS011;45224;50.904;6.038;2022-08-06T01:36:51;5.95;;;1.60;;
59418;SDS011;45224;50.904;6.038;2022-08-06T01:38:43;4.88;;;1.45;;
59418;SDS011;45224;50.904;6.038;2022-08-06T01:40:21;3.10;;;1.30;;
59418;SDS011;45224;50.904;6.038;2022-08-06T01:41:55;5.65;;;1.67;;
59418;SDS011;45224;50.904;6.038;2022-08-06T01:43:27;4.30;;;1.60;;
59418;SDS011;45224;50.904;6.038;2022-08-06T01:45:01;5.13;;;1.67;;
59418;SDS011;45224;50.904;6.038;2022-08-06T01:46:42;3.70;;;1.40;;
59418;SDS011;45224;50.904;6.038;2022-08-06T01:48:17;4.97;;;1.73;;
59418;SDS011;45224;50.904;6.038;2022-08-06T01:49:51;6.18;;;1.70;;
59418;SDS011;45224;50.904;6.038;2022-08-06T01:51:25;4.63;;;1.70;;
59418;SDS011;45224;50.904;6.038;2022-08-06T01:52:58;6.88;;;1.92;;
59418;SDS011;45224;50.904;6.038;2022-08-06T01:54:30;4.63;;;1.75;;
59418;SDS011;45224;50.904;6.038;2022-08-06T01:56:06;4.15;;;1.73;;
59418;SDS011;45224;50.904;6.038;2022-08-06T01:58:12;7.78;;;1.73;;
59418;SDS011;45224;50.904;6.038;2022-08-06T01:59:36;4.47;;;1.70;;
59418;SDS011;45224;50.904;6.038;2022-08-06T02:01:12;10.10;;;1.90;;
59418;SDS011;45224;50.904;6.038;2022-08-06T02:02:44;5.85;;;1.70;;
59418;SDS011;45224;50.904;6.038;2022-08-06T02:04:17;5.03;;;1.75;;
59418;SDS011;45224;50.904;6.038;2022-08-06T02:05:50;5.20;;;1.70;;
59418;SDS011;45224;50.904;6.038;2022-08-06T02:07:24;7.20;;;2.22;;
59418;SDS011;45224;50.904;6.038;2022-08-06T02:09:02;4.72;;;2.20;;
59418;SDS011;45224;50.904;6.038;2022-08-06T02:10:35;5.57;;;1.75;;
59418;SDS011;45224;50.904;6.038;2022-08-06T02:12:07;9.82;;;2.00;;
59418;SDS011;45224;50.904;6.038;2022-08-06T02:13:41;7.55;;;2.22;;
59418;SDS011;45224;50.904;6.038;2022-08-06T02:15:14;8.57;;;2.58;;
59418;SDS011;45224;50.904;6.038;2022-08-06T02:16:49;5.22;;;1.80;;
59418;SDS011;45224;50.904;6.038;2022-08-06T02:18:21;5.32;;;2.08;;
59418;SDS011;45224;50.904;6.038;2022-08-06T02:19:53;6.30;;;1.88;;
59418;SDS011;45224;50.904;6.038;2022-08-06T02:21:29;9.60;;;2.30;;
59418;SDS011;45224;50.904;6.038;2022-08-06T02:23:02;4.07;;;2.15;;
59418;SDS011;45224;50.904;6.038;2022-08-06T02:24:36;5.80;;;2.05;;
59418;SDS011;45224;50.904;6.038;2022-08-06T02:26:06;6.32;;;2.20;;
59418;SDS011;45224;50.904;6.038;2022-08-06T02:27:38;4.68;;;2.13;;
59418;SDS011;45224;50.904;6.038;2022-08-06T02:29:14;8.23;;;2.50;;
59418;SDS011;45224;50.904;6.038;2022-08-06T02:30:47;5.32;;;2.15;;
59418;SDS011;45224;50.904;6.038;2022-08-06T02:32:21;3.97;;;2.13;;
59418;SDS011;45224;50.904;6.038;2022-08-06T02:33:51;8.93;;;2.60;;
59418;SDS011;45224;50.904;6.038;2022-08-06T02:35:22;5.03;;;2.27;;
59418;SDS011;45224;50.904;6.038;2022-08-06T02:36:55;7.53;;;2.67;;
59418;SDS011;45224;50.904;6.038;2022-08-06T02:38:48;9.10;;;2.80;;
59418;SDS011;45224;50.904;6.038;2022-08-06T02:40:25;5.55;;;2.33;;
59418;SDS011;45224;50.904;6.038;2022-08-06T02:42:02;6.53;;;2.60;;
59418;SDS011;45224;50.904;6.038;2022-08-06T02:43:39;8.43;;;2.70;;
59418;SDS011;45224;50.904;6.038;2022-08-06T02:45:32;6.50;;;2.35;;
59418;SDS011;45224;50.904;6.038;2022-08-06T02:47:08;6.93;;;2.38;;
59418;SDS011;45224;50.904;6.038;2022-08-06T02:48:49;6.35;;;2.47;;
59418;SDS011;45224;50.904;6.038;2022-08-06T02:50:26;8.93;;;3.05;;
59418;SDS011;45224;50.904;6.038;2022-08-06T02:52:03;3.72;;;2.35;;
59418;SDS011;45224;50.904;6.038;2022-08-06T02:55:34;5.63;;;2.78;;
59418;SDS011;45224;50.904;6.038;2022-08-06T02:57:10;6.05;;;2.70;;
59418;SDS011;45224;50.904;6.038;2022-08-06T02:58:44;7.03;;;2.75;;
59418;SDS011;45224;50.904;6.038;2022-08-06T03:00:17;4.32;;;2.65;;
59418;SDS011;45224;50.904;6.038;2022-08-06T03:01:50;9.27;;;2.70;;
59418;SDS011;45224;50.904;6.038;2022-08-06T03:03:26;5.90;;;3.15;;
59418;SDS011;45224;50.904;6.038;2022-08-06T03:04:59;7.35;;;3.15;;
59418;SDS011;45224;50.904;6.038;2022-08-06T03:06:32;7.47;;;2.88;;
59418;SDS011;45224;50.904;6.038;2022-08-06T03:08:05;11.27;;;2.90;;
59418;SDS011;45224;50.904;6.038;2022-08-06T03:09:40;6.63;;;2.88;;
59418;SDS011;45224;50.904;6.038;2022-08-06T03:11:14;5.65;;;2.70;;
59418;SDS011;45224;50.904;6.038;2022-08-06T03:12:46;8.88;;;3.00;;
59418;SDS011;45224;50.904;6.038;2022-08-06T03:14:18;8.68;;;3.13;;
59418;SDS011;45224;50.904;6.038;2022-08-06T03:15:50;5.25;;;2.80;;
59418;SDS011;45224;50.904;6.038;2022-08-06T03:17:23;7.22;;;2.90;;
59418;SDS011;45224;50.904;6.038;2022-08-06T03:18:56;9.85;;;3.00;;
59418;SDS011;45224;50.904;6.038;2022-08-06T03:20:27;10.88;;;2.90;;
59418;SDS011;45224;50.904;6.038;2022-08-06T03:22:00;9.00;;;2.65;;
59418;SDS011;45224;50.904;6.038;2022-08-06T03:23:32;8.00;;;2.90;;
59418;SDS011;45224;50.904;6.038;2022-08-06T03:25:04;11.98;;;3.10;;
59418;SDS011;45224;50.904;6.038;2022-08-06T03:26:36;8.75;;;2.78;;
59418;SDS011;45224;50.904;6.038;2022-08-06T03:28:08;8.98;;;3.13;;
59418;SDS011;45224;50.904;6.038;2022-08-06T03:29:41;9.27;;;2.90;;
59418;SDS011;45224;50.904;6.038;2022-08-06T03:32:43;6.13;;;3.03;;
59418;SDS011;45224;50.904;6.038;2022-08-06T03:34:15;11.88;;;3.40;;
59418;SDS011;45224;50.904;6.038;2022-08-06T03:35:46;12.38;;;2.97;;
59418;SDS011;45224;50.904;6.038;2022-08-06T03:37:19;4.82;;;2.50;;
59418;SDS011;45224;50.904;6.038;2022-08-06T03:39:02;7.82;;;3.03;;
59418;SDS011;45224;50.904;6.038;2022-08-06T03:40:37;11.23;;;2.95;;
59418;SDS011;45224;50.904;6.038;2022-08-06T03:42:14;7.60;;;3.30;;
59418;SDS011;45224;50.904;6.038;2022-08-06T03:43:45;8.60;;;3.07;;
59418;SDS011;45224;50.904;6.038;2022-08-06T03:45:15;6.97;;;2.85;;
59418;SDS011;45224;50.904;6.038;2022-08-06T03:46:47;5.70;;;2.97;;
59418;SDS011;45224;50.904;6.038;2022-08-06T03:48:20;11.82;;;3.10;;
59418;SDS011;45224;50.904;6.038;2022-08-06T03:51:35;7.45;;;3.58;;
59418;SDS011;45224;50.904;6.038;2022-08-06T03:53:08;7.20;;;3.10;;
59418;SDS011;45224;50.904;6.038;2022-08-06T03:54:48;10.75;;;3.20;;
59418;SDS011;45224;50.904;6.038;2022-08-06T03:56:23;8.75;;;3.40;;
59418;SDS011;45224;50.904;6.038;2022-08-06T03:57:57;15.20;;;4.50;;
59418;SDS011;45224;50.904;6.038;2022-08-06T03:59:31;10.15;;;3.42;;
59418;SDS011;45224;50.904;6.038;2022-08-06T04:01:05;10.35;;;3.28;;
59418;SDS011;45224;50.904;6.038;2022-08-06T04:02:38;13.35;;;3.78;;
59418;SDS011;45224;50.904;6.038;2022-08-06T04:04:12;10.40;;;3.67;;
59418;SDS011;45224;50.904;6.038;2022-08-06T04:05:45;11.27;;;3.70;;
59418;SDS011;45224;50.904;6.038;2022-08-06T04:07:16;9.23;;;3.50;;
59418;SDS011;45224;50.904;6.038;2022-08-06T04:08:48;9.20;;;3.70;;
59418;SDS011;45224;50.904;6.038;2022-08-06T04:10:20;11.65;;;3.80;;
59418;SDS011;45224;50.904;6.038;2022-08-06T04:11:53;13.25;;;3.63;;
59418;SDS011;45224;50.904;6.038;2022-08-06T04:14:55;16.35;;;3.65;;
59418;SDS011;45224;50.904;6.038;2022-08-06T04:16:26;11.90;;;3.72;;
59418;SDS011;45224;50.904;6.038;2022-08-06T04:17:57;12.30;;;3.38;;
59418;SDS011;45224;50.904;6.038;2022-08-06T04:19:28;12.82;;;4.10;;
59418;SDS011;45224;50.904;6.038;2022-08-06T04:21:04;7.80;;;3.42;;
59418;SDS011;45224;50.904;6.038;2022-08-06T04:22:36;13.07;;;3.50;;
59418;SDS011;45224;50.904;6.038;2022-08-06T04:24:07;11.90;;;3.80;;
59418;SDS011;45224;50.904;6.038;2022-08-06T04:25:42;10.03;;;3.97;;
59418;SDS011;45224;50.904;6.038;2022-08-06T04:27:15;10.82;;;3.67;;
59418;SDS011;45224;50.904;6.038;2022-08-06T04:28:47;11.65;;;3.78;;
59418;SDS011;45224;50.904;6.038;2022-08-06T04:30:23;17.40;;;4.28;;
59418;SDS011;45224;50.904;6.038;2022-08-06T04:31:56;11.88;;;3.75;;
59418;SDS011;45224;50.904;6.038;2022-08-06T04:33:29;11.07;;;3.50;;
59418;SDS011;45224;50.904;6.038;2022-08-06T04:35:04;14.18;;;3.70;;
59418;SDS011;45224;50.904;6.038;2022-08-06T04:36:36;8.75;;;3.60;;
59418;SDS011;45224;50.904;6.038;2022-08-06T04:38:07;9.15;;;3.55;;
59418;SDS011;45224;50.904;6.038;2022-08-06T04:39:39;14.13;;;4.00;;
59418;SDS011;45224;50.904;6.038;2022-08-06T04:41:10;11.60;;;3.60;;
59418;SDS011;45224;50.904;6.038;2022-08-06T04:42:42;9.82;;;3.42;;
59418;SDS011;45224;50.904;6.038;2022-08-06T04:44:12;10.85;;;4.20;;
59418;SDS011;45224;50.904;6.038;2022-08-06T04:45:43;12.52;;;4.35;;
59418;SDS011;45224;50.904;6.038;2022-08-06T04:47:15;14.85;;;4.00;;
59418;SDS011;45224;50.904;6.038;2022-08-06T04:48:46;5.47;;;3.45;;
59418;SDS011;45224;50.904;6.038;2022-08-06T04:50:17;7.30;;;3.53;;
59418;SDS011;45224;50.904;6.038;2022-08-06T04:51:48;8.03;;;3.77;;
59418;SDS011;45224;50.904;6.038;2022-08-06T04:53:19;9.50;;;3.45;;
59418;SDS011;45224;50.904;6.038;2022-08-06T04:54:49;10.48;;;3.47;;
59418;SDS011;45224;50.904;6.038;2022-08-06T04:56:20;12.63;;;4.20;;
59418;SDS011;45224;50.904;6.038;2022-08-06T04:57:51;12.93;;;4.70;;
59418;SDS011;45224;50.904;6.038;2022-08-06T04:59:22;14.25;;;4.40;;
59418;SDS011;45224;50.904;6.038;2022-08-06T05:00:52;11.30;;;4.33;;
59418;SDS011;45224;50.904;6.038;2022-08-06T05:02:23;11.73;;;4.43;;
59418;SDS011;45224;50.904;6.038;2022-08-06T05:03:53;11.70;;;4.03;;
59418;SDS011;45224;50.904;6.038;2022-08-06T05:05:24;14.23;;;4.70;;
59418;SDS011;45224;50.904;6.038;2022-08-06T05:08:30;9.18;;;3.92;;
59418;SDS011;45224;50.904;6.038;2022-08-06T05:10:03;10.23;;;4.35;;
59418;SDS011;45224;50.904;6.038;2022-08-06T05:11:37;12.68;;;4.60;;
59418;SDS011;45224;50.904;6.038;2022-08-06T05:13:11;15.27;;;4.68;;
59418;SDS011;45224;50.904;6.038;2022-08-06T05:14:52;11.88;;;4.50;;
59418;SDS011;45224;50.904;6.038;2022-08-06T05:16:28;11.82;;;4.70;;
59418;SDS011;45224;50.904;6.038;2022-08-06T05:18:20;13.60;;;4.78;;
59418;SDS011;45224;50.904;6.038;2022-08-06T05:19:55;14.65;;;4.95;;
59418;SDS011;45224;50.904;6.038;2022-08-06T05:21:30;8.93;;;4.15;;
59418;SDS011;45224;50.904;6.038;2022-08-06T05:23:05;13.35;;;4.88;;
59418;SDS011;45224;50.904;6.038;2022-08-06T05:24:39;14.80;;;4.97;;
59418;SDS011;45224;50.904;6.038;2022-08-06T05:26:11;17.20;;;5.05;;
59418;SDS011;45224;50.904;6.038;2022-08-06T05:27:42;28.27;;;5.22;;
59418;SDS011;45224;50.904;6.038;2022-08-06T05:29:17;7.80;;;4.45;;
59418;SDS011;45224;50.904;6.038;2022-08-06T05:30:51;15.18;;;4.75;;
59418;SDS011;45224;50.904;6.038;2022-08-06T05:32:22;11.50;;;4.68;;
59418;SDS011;45224;50.904;6.038;2022-08-06T05:33:53;15.88;;;4.85;;
59418;SDS011;45224;50.904;6.038;2022-08-06T05:35:24;14.15;;;5.47;;
59418;SDS011;45224;50.904;6.038;2022-08-06T05:36:55;9.10;;;4.63;;
59418;SDS011;45224;50.904;6.038;2022-08-06T05:38:25;12.43;;;4.53;;
59418;SDS011;45224;50.904;6.038;2022-08-06T05:39:56;10.25;;;4.47;;
59418;SDS011;45224;50.904;6.038;2022-08-06T05:41:27;16.03;;;4.60;;
59418;SDS011;45224;50.904;6.038;2022-08-06T05:43:00;11.52;;;4.70;;
59418;SDS011;45224;50.904;6.038;2022-08-06T05:44:30;11.60;;;4.43;;
59418;SDS011;45224;50.904;6.038;2022-08-06T05:46:01;7.90;;;4.10;;
59418;SDS011;45224;50.904;6.038;2022-08-06T05:47:41;11.30;;;4.13;;
59418;SDS011;45224;50.904;6.038;2022-08-06T05:49:14;11.50;;;4.53;;
59418;SDS011;45224;50.904;6.038;2022-08-06T05:50:51;8.18;;;4.20;;
59418;SDS011;45224;50.904;6.038;2022-08-06T05:52:28;9.48;;;4.13;;
59418;SDS011;45224;50.904;6.038;2022-08-06T05:54:05;20.02;;;5.30;;
59418;SDS011;45224;50.904;6.038;2022-08-06T05:56:05;11.88;;;4.38;;
59418;SDS011;45224;50.904;6.038;2022-08-06T05:57:42;12.82;;;5.22;;
59418;SDS011;45224;50.904;6.038;2022-08-06T05:59:21;10.80;;;4.45;;
59418;SDS011;45224;50.904;6.038;2022-08-06T06:00:58;12.25;;;4.55;;
59418;SDS011;45224;50.904;6.038;2022-08-06T06:02:31;10.32;;;4.40;;
59418;SDS011;45224;50.904;6.038;2022-08-06T06:04:02;13.30;;;4.55;;
59418;SDS011;45224;50.904;6.038;2022-08-06T06:05:33;11.25;;;4.47;;
59418;SDS011;45224;50.904;6.038;2022-08-06T06:07:05;13.15;;;4.78;;
59418;SDS011;45224;50.904;6.038;2022-08-06T06:08:36;15.82;;;4.90;;
59418;SDS011;45224;50.904;6.038;2022-08-06T06:10:07;10.00;;;4.45;;
59418;SDS011;45224;50.904;6.038;2022-08-06T06:11:38;13.70;;;4.55;;
59418;SDS011;45224;50.904;6.038;2022-08-06T06:13:09;12.27;;;4.78;;
59418;SDS011;45224;50.904;6.038;2022-08-06T06:14:40;11.18;;;4.38;;
59418;SDS011;45224;50.904;6.038;2022-08-06T06:19:57;14.63;;;3.55;;
59418;SDS011;45224;50.904;6.038;2022-08-06T06:21:55;14.57;;;4.18;;
59418;SDS011;45224;50.904;6.038;2022-08-06T06:23:45;11.30;;;3.65;;
59418;SDS011;45224;50.904;6.038;2022-08-06T06:25:23;13.75;;;3.65;;
59418;SDS011;45224;50.904;6.038;2022-08-06T06:29:03;15.50;;;3.40;;
59418;SDS011;45224;50.904;6.038;2022-08-06T06:34:40;21.08;;;3.50;;
59418;SDS011;45224;50.904;6.038;2022-08-06T06:40:38;16.30;;;3.60;;
59418;SDS011;45224;50.904;6.038;2022-08-06T06:42:13;14.65;;;3.80;;
59418;SDS011;45224;50.904;6.038;2022-08-06T06:47:57;8.85;;;3.03;;
59418;SDS011;45224;50.904;6.038;2022-08-06T06:49:35;7.90;;;2.80;;
59418;SDS011;45224;50.904;6.038;2022-08-06T06:51:20;15.90;;;3.13;;
59418;SDS011;45224;50.904;6.038;2022-08-06T06:52:59;13.02;;;3.38;;
59418;SDS011;45224;50.904;6.038;2022-08-06T06:54:35;12.27;;;3.28;;
59418;SDS011;45224;50.904;6.038;2022-08-06T06:56:19;12.55;;;3.10;;
59418;SDS011;45224;50.904;6.038;2022-08-06T06:57:53;13.32;;;3.10;;
59418;SDS011;45224;50.904;6.038;2022-08-06T06:59:35;10.32;;;2.88;;
59418;SDS011;45224;50.904;6.038;2022-08-06T07:01:09;11.95;;;2.85;;
59418;SDS011;45224;50.904;6.038;2022-08-06T07:02:41;8.05;;;2.40;;
59418;SDS011;45224;50.904;6.038;2022-08-06T07:04:15;9.30;;;3.40;;
59418;SDS011;45224;50.904;6.038;2022-08-06T07:05:49;10.23;;;2.80;;
59418;SDS011;45224;50.904;6.038;2022-08-06T07:07:21;9.95;;;2.20;;
59418;SDS011;45224;50.904;6.038;2022-08-06T07:08:52;12.15;;;3.05;;
59418;SDS011;45224;50.904;6.038;2022-08-06T07:10:24;11.57;;;3.05;;
59418;SDS011;45224;50.904;6.038;2022-08-06T07:11:56;11.30;;;2.70;;
59418;SDS011;45224;50.904;6.038;2022-08-06T07:13:28;10.50;;;3.10;;
59418;SDS011;45224;50.904;6.038;2022-08-06T07:15:01;12.07;;;2.95;;
59418;SDS011;45224;50.904;6.038;2022-08-06T07:16:33;13.77;;;2.78;;
59418;SDS011;45224;50.904;6.038;2022-08-06T07:18:04;13.02;;;2.63;;
59418;SDS011;45224;50.904;6.038;2022-08-06T07:19:37;10.60;;;2.50;;
59418;SDS011;45224;50.904;6.038;2022-08-06T07:21:08;13.75;;;2.70;;
59418;SDS011;45224;50.904;6.038;2022-08-06T07:22:40;12.55;;;3.00;;
59418;SDS011;45224;50.904;6.038;2022-08-06T07:24:13;12.00;;;2.47;;
59418;SDS011;45224;50.904;6.038;2022-08-06T07:25:46;10.18;;;2.40;;
59418;SDS011;45224;50.904;6.038;2022-08-06T07:27:18;11.40;;;2.80;;
59418;SDS011;45224;50.904;6.038;2022-08-06T07:28:49;11.32;;;2.05;;
59418;SDS011;45224;50.904;6.038;2022-08-06T07:30:22;9.00;;;1.75;;
59418;SDS011;45224;50.904;6.038;2022-08-06T07:31:54;7.45;;;2.15;;
59418;SDS011;45224;50.904;6.038;2022-08-06T07:33:26;6.15;;;1.70;;
59418;SDS011;45224;50.904;6.038;2022-08-06T07:34:58;7.50;;;2.10;;
59418;SDS011;45224;50.904;6.038;2022-08-06T07:36:31;10.45;;;2.03;;
59418;SDS011;45224;50.904;6.038;2022-08-06T07:38:03;6.72;;;2.70;;
59418;SDS011;45224;50.904;6.038;2022-08-06T07:39:37;9.88;;;2.75;;
59418;SDS011;45224;50.904;6.038;2022-08-06T07:41:10;7.22;;;2.20;;
59418;SDS011;45224;50.904;6.038;2022-08-06T07:42:42;6.70;;;2.00;;
59418;SDS011;45224;50.904;6.038;2022-08-06T07:44:16;7.97;;;2.00;;
59418;SDS011;45224;50.904;6.038;2022-08-06T07:45:50;9.13;;;2.30;;
59418;SDS011;45224;50.904;6.038;2022-08-06T07:47:26;10.55;;;2.20;;
59418;SDS011;45224;50.904;6.038;2022-08-06T07:49:03;5.95;;;1.80;;
59418;SDS011;45224;50.904;6.038;2022-08-06T07:50:34;13.20;;;2.40;;
59418;SDS011;45224;50.904;6.038;2022-08-06T07:52:05;12.00;;;2.22;;
59418;SDS011;45224;50.904;6.038;2022-08-06T07:53:38;6.93;;;2.22;;
59418;SDS011;45224;50.904;6.038;2022-08-06T07:55:11;9.85;;;2.08;;
59418;SDS011;45224;50.904;6.038;2022-08-06T07:56:43;5.88;;;2.03;;
59418;SDS011;45224;50.904;6.038;2022-08-06T07:58:15;11.50;;;2.40;;
59418;SDS011;45224;50.904;6.038;2022-08-06T08:01:16;7.47;;;2.10;;
59418;SDS011;45224;50.904;6.038;2022-08-06T08:02:48;6.45;;;1.83;;
59418;SDS011;45224;50.904;6.038;2022-08-06T08:04:40;8.50;;;2.20;;
59418;SDS011;45224;50.904;6.038;2022-08-06T08:06:30;3.38;;;1.45;;
59418;SDS011;45224;50.904;6.038;2022-08-06T08:08:01;12.10;;;1.63;;
59418;SDS011;45224;50.904;6.038;2022-08-06T08:09:32;5.93;;;1.90;;
59418;SDS011;45224;50.904;6.038;2022-08-06T08:11:05;5.03;;;1.58;;
59418;SDS011;45224;50.904;6.038;2022-08-06T08:12:37;3.42;;;1.20;;
59418;SDS011;45224;50.904;6.038;2022-08-06T08:14:09;5.43;;;1.90;;
59418;SDS011;45224;50.904;6.038;2022-08-06T08:15:40;5.35;;;1.70;;
59418;SDS011;45224;50.904;6.038;2022-08-06T08:17:11;8.60;;;1.83;;
59418;SDS011;45224;50.904;6.038;2022-08-06T08:18:42;6.13;;;1.95;;
59418;SDS011;45224;50.904;6.038;2022-08-06T08:20:13;6.82;;;1.88;;
59418;SDS011;45224;50.904;6.038;2022-08-06T08:23:14;6.47;;;1.40;;
59418;SDS011;45224;50.904;6.038;2022-08-06T08:24:46;6.00;;;1.40;;
59418;SDS011;45224;50.904;6.038;2022-08-06T08:26:18;6.72;;;1.60;;
59418;SDS011;45224;50.904;6.038;2022-08-06T08:27:48;10.48;;;1.52;;
59418;SDS011;45224;50.904;6.038;2022-08-06T08:29:21;7.18;;;1.58;;
59418;SDS011;45224;50.904;6.038;2022-08-06T08:30:52;3.72;;;1.50;;
59418;SDS011;45224;50.904;6.038;2022-08-06T08:32:23;4.53;;;1.52;;
59418;SDS011;45224;50.904;6.038;2022-08-06T08:35:24;4.80;;;0.90;;
59418;SDS011;45224;50.904;6.038;2022-08-06T08:36:54;6.43;;;1.40;;
59418;SDS011;45224;50.904;6.038;2022-08-06T08:38:25;4.97;;;1.45;;
59418;SDS011;45224;50.904;6.038;2022-08-06T08:39:55;5.38;;;1.38;;
59418;SDS011;45224;50.904;6.038;2022-08-06T08:42:58;4.90;;;1.10;;
59418;SDS011;45224;50.904;6.038;2022-08-06T08:44:33;4.45;;;1.13;;
59418;SDS011;45224;50.904;6.038;2022-08-06T08:46:04;3.00;;;0.85;;
59418;SDS011;45224;50.904;6.038;2022-08-06T08:47:39;5.95;;;1.52;;
59418;SDS011;45224;50.904;6.038;2022-08-06T08:49:18;4.70;;;1.25;;
59418;SDS011;45224;50.904;6.038;2022-08-06T08:50:50;5.32;;;1.45;;
59418;SDS011;45224;50.904;6.038;2022-08-06T08:52:23;6.00;;;1.17;;
59418;SDS011;45224;50.904;6.038;2022-08-06T08:53:58;3.75;;;1.40;;
59418;SDS011;45224;50.904;6.038;2022-08-06T08:55:30;3.88;;;0.95;;
59418;SDS011;45224;50.904;6.038;2022-08-06T08:57:01;3.13;;;1.27;;
59418;SDS011;45224;50.904;6.038;2022-08-06T08:58:32;4.35;;;1.20;;
59418;SDS011;45224;50.904;6.038;2022-08-06T09:00:06;6.80;;;1.13;;
59418;SDS011;45224;50.904;6.038;2022-08-06T09:01:38;8.43;;;1.25;;
59418;SDS011;45224;50.904;6.038;2022-08-06T09:03:10;5.05;;;1.02;;
59418;SDS011;45224;50.904;6.038;2022-08-06T09:04:41;6.10;;;1.13;;
59418;SDS011;45224;50.904;6.038;2022-08-06T09:07:42;6.03;;;1.00;;
59418;SDS011;45224;50.904;6.038;2022-08-06T09:09:14;3.30;;;0.88;;
59418;SDS011;45224;50.904;6.038;2022-08-06T09:10:45;4.53;;;1.10;;
59418;SDS011;45224;50.904;6.038;2022-08-06T09:12:16;3.22;;;0.95;;
59418;SDS011;45224;50.904;6.038;2022-08-06T09:15:18;7.00;;;1.20;;
59418;SDS011;45224;50.904;6.038;2022-08-06T09:16:48;6.88;;;1.20;;
59418;SDS011;45224;50.904;6.038;2022-08-06T09:18:20;4.68;;;1.20;;
59418;SDS011;45224;50.904;6.038;2022-08-06T09:19:50;3.78;;;1.30;;
59418;SDS011;45224;50.904;6.038;2022-08-06T09:21:21;4.85;;;1.50;;
59418;SDS011;45224;50.904;6.038;2022-08-06T09:22:52;4.78;;;1.08;;
59418;SDS011;45224;50.904;6.038;2022-08-06T09:24:23;6.47;;;1.50;;
59418;SDS011;45224;50.904;6.038;2022-08-06T09:27:24;5.50;;;1.00;;
59418;SDS011;45224;50.904;6.038;2022-08-06T09:29:09;3.83;;;0.77;;
59418;SDS011;45224;50.904;6.038;2022-08-06T09:30:56;5.72;;;1.00;;
59418;SDS011;45224;50.904;6.038;2022-08-06T09:32:45;6.63;;;1.10;;
59418;SDS011;45224;50.904;6.038;2022-08-06T09:34:16;4.47;;;1.65;;
59418;SDS011;45224;50.904;6.038;2022-08-06T09:35:56;4.63;;;1.17;;
59418;SDS011;45224;50.904;6.038;2022-08-06T09:38:59;3.45;;;0.93;;
59418;SDS011;45224;50.904;6.038;2022-08-06T09:40:30;4.25;;;0.90;;
59418;SDS011;45224;50.904;6.038;2022-08-06T09:42:00;3.72;;;0.98;;
59418;SDS011;45224;50.904;6.038;2022-08-06T09:45:09;3.70;;;0.63;;
59418;SDS011;45224;50.904;6.038;2022-08-06T09:46:42;4.80;;;0.90;;
59418;SDS011;45224;50.904;6.038;2022-08-06T09:48:13;5.05;;;0.90;;
59418;SDS011;45224;50.904;6.038;2022-08-06T09:51:20;1.97;;;0.70;;
59418;SDS011;45224;50.904;6.038;2022-08-06T09:53:11;5.40;;;0.80;;
59418;SDS011;45224;50.904;6.038;2022-08-06T09:54:42;6.05;;;0.85;;
59418;SDS011;45224;50.904;6.038;2022-08-06T09:57:46;2.28;;;0.63;;
59418;SDS011;45224;50.904;6.038;2022-08-06T10:00:46;2.80;;;0.90;;
59418;SDS011;45224;50.904;6.038;2022-08-06T10:03:49;1.92;;;0.75;;
59418;SDS011;45224;50.904;6.038;2022-08-06T10:05:22;3.58;;;0.90;;
59418;SDS011;45224;50.904;6.038;2022-08-06T10:06:57;2.63;;;0.90;;
59418;SDS011;45224;50.904;6.038;2022-08-06T10:08:29;4.55;;;0.82;;
59418;SDS011;45224;50.904;6.038;2022-08-06T10:09:59;2.47;;;0.60;;
59418;SDS011;45224;50.904;6.038;2022-08-06T10:13:15;4.95;;;0.70;;
59418;SDS011;45224;50.904;6.038;2022-08-06T10:14:47;4.68;;;0.90;;
59418;SDS011;45224;50.904;6.038;2022-08-06T10:16:19;1.45;;;0.40;;
59418;SDS011;45224;50.904;6.038;2022-08-06T10:17:50;4.53;;;0.77;;